METAR AND TAF INFORMATION
METAR FOR ELLX
ADDS - METARS form results

(0000 UTC 19 October 2017)
Data provider http://aviationweather.gov/adds/metars/
 
METAR text: ELLX 182350Z 11003KT CAVOK 12/09 Q1013 NOSIG
Conditions at: ELLX (LUXEMBOURG (AUT), LU) observed 2350 UTC 18 October 2017
Temperature: 12.0°C (54°F)
Dewpoint: 9.0°C (48°F) [RH = 82%]
Pressure (altimeter): 29.91 inches Hg (1013.0 mb)
Winds: from the ESE (110 degrees) at 3 MPH (3 knots; 1.6 m/s)
Visibility: 6 or more miles (10+ km)
Ceiling: ceiling and visibility are OK
Clouds: unknown
Weather: no significant weather observed at this time

METAR text: ELLX 182320Z VRB02KT CAVOK 11/10 Q1014 NOSIG
Conditions at: ELLX (LUXEMBOURG (AUT), LU) observed 2320 UTC 18 October 2017
Temperature: 11.0°C (52°F)
Dewpoint: 10.0°C (50°F) [RH = 94%]
Pressure (altimeter): 29.94 inches Hg (1014.0 mb)
Winds: variable direction winds at 2 MPH (2 knots; 1.0 m/s)
Visibility: 6 or more miles (10+ km)
Ceiling: ceiling and visibility are OK
Clouds: unknown
Weather: no significant weather observed at this time

Forecast for: ELLX (LUXEMBOURG (AUT), LU)
Text: TAF ELLX 182300Z 1900/2006 15004KT CAVOK
Forecast period: 0000 UTC 19 October 2017 to 0200 UTC 20 October 2017
Forecast type: FROM: standard forecast or significant change
Winds: from the SSE (150 degrees) at 5 MPH (4 knots; 2.1 m/s)
Visibility: 6 or more miles (10+ km)
Clouds: not forecast
Weather: NSW  (no significant weather)
Text: TEMPO 1900/1909 VRB02KT
Forecast period: 0000 to 0900 UTC 19 October 2017
Forecast type: TEMPORARY: The following changes expected for less than half the time period
Winds: variable direction winds at 2 MPH (2 knots; 1.0 m/s)
Weather: no significant weather forecast for this period
Text: BECMG 2002/2004 BKN030
Forecast period: 0200 to 0600 UTC 20 October 2017
Forecast type: BECOMING: Conditions expected to become as follows by 0400 UTC 20 October 2017
Winds: from the SSE (150 degrees) at 5 MPH (4 knots; 2.1 m/s)
Visibility: 6 or more miles (10+ km)
Ceiling: 3000 feet AGL
Clouds: broken clouds at 3000 feet AGL
Weather: NSW  (no significant weather)

 AIRPORT MAP

 RUNWAY INFORMATION
Runway 06 Runway length 13123 ft Runway width 197 ft
Runway elevation 1158 ft Runway displaced threshold 0 ft Runway heading 60
Runway 24 Runway length 13123 ft Runway width 197 ft
Runway elevation 1214 ft Runway displaced threshold 0 ft Runway heading 240

 AIRPORT FREQUENCIES
Type APP Name APP Frequency 118.9 MHZ
Type ATIS Name ATIS Frequency 135.55 MHZ
Type TWR Name TWR Frequency 118.1 MHZ

 AIRPORT NEAR NAVIGATION AIDS